Time;durP1;ratioP1;P1;durP2;ratioP2;P2;SDS_P1;SDS_P2;PMS_P1;PMS_P2;Temp;Humidity;BMP_temperature;BMP_pressure;BME280_temperature;BME280_humidity;BME280_pressure;Samples;Min_cycle;Max_cycle;Signal;HPM_P1;HPM_P2
2022/06/11 00:01:20;;;;;;;0.17;0.10;;;27.30;47.10;;;;;;5054983;28;20047;-53
2022/06/11 00:03:48;;;;;;;1.38;0.20;;;27.30;47.20;;;;;;5051002;28;20111;-51
2022/06/11 00:06:15;;;;;;;0.22;0.22;;;27.30;47.20;;;;;;5052791;28;20044;-52
2022/06/11 00:08:43;;;;;;;0.30;0.20;;;27.30;47.20;;;;;;5049357;28;20128;-50
2022/06/11 00:11:10;;;;;;;0.40;0.20;;;27.30;47.20;;;;;;5053044;28;20084;-52
2022/06/11 00:13:38;;;;;;;0.20;0.20;;;27.30;47.20;;;;;;5052415;28;20045;-49
2022/06/11 00:16:06;;;;;;;0.22;0.20;;;27.30;47.30;;;;;;5053847;28;20037;-51
2022/06/11 00:18:36;;;;;;;0.57;0.20;;;27.30;47.30;;;;;;5060621;28;20036;-51
2022/06/11 00:21:05;;;;;;;0.40;0.15;;;27.30;47.30;;;;;;5056786;28;20475;-53
2022/06/11 00:23:32;;;;;;;0.20;0.20;;;27.30;47.30;;;;;;5046548;28;20041;-53
2022/06/11 00:26:02;;;;;;;0.43;0.30;;;27.30;47.30;;;;;;5054668;28;20135;-50
2022/06/11 00:28:29;;;;;;;0.40;0.40;;;27.30;47.40;;;;;;5056508;28;20082;-51
2022/06/11 00:30:57;;;;;;;0.73;0.20;;;27.20;47.30;;;;;;5050782;28;20128;-49
2022/06/11 00:33:24;;;;;;;0.20;0.20;;;27.20;47.30;;;;;;5053601;28;20039;-52
2022/06/11 00:35:52;;;;;;;0.30;0.28;;;27.20;47.30;;;;;;5048918;28;20037;-48
2022/06/11 00:38:21;;;;;;;0.40;0.20;;;27.20;47.30;;;;;;5052908;28;20099;-53
2022/06/11 00:40:50;;;;;;;0.65;0.22;;;27.20;47.40;;;;;;5052147;28;20067;-49
2022/06/11 00:43:19;;;;;;;0.30;0.13;;;27.20;47.40;;;;;;5054806;28;20044;-49
2022/06/11 00:45:52;;;;;;;0.10;0.10;;;27.20;47.40;;;;;;5056492;28;20072;-51
2022/06/11 00:48:26;;;;;;;0.52;0.20;;;27.20;47.40;;;;;;5060911;28;20150;-52
2022/06/11 00:50:59;;;;;;;0.40;0.20;;;27.20;47.40;;;;;;5049117;28;20131;-52
2022/06/11 00:53:34;;;;;;;0.22;0.10;;;27.20;47.50;;;;;;5061553;28;20449;-53
2022/06/11 00:56:04;;;;;;;0.20;0.20;;;27.20;47.50;;;;;;5046981;28;20041;-52
2022/06/11 00:58:35;;;;;;;0.40;0.10;;;27.20;47.50;;;;;;5059823;28;20076;-51
2022/06/11 01:01:02;;;;;;;0.95;0.50;;;27.20;47.60;;;;;;5059029;28;20053;-53
2022/06/11 01:03:33;;;;;;;0.50;0.20;;;27.10;47.50;;;;;;5054222;28;20036;-53
2022/06/11 01:06:10;;;;;;;0.20;0.10;;;27.20;47.60;;;;;;5062135;28;20044;-49
2022/06/11 01:08:49;;;;;;;0.20;0.20;;;27.20;47.60;;;;;;5082258;28;20140;-54
2022/06/11 01:11:40;;;;;;;0.35;0.35;;;27.20;47.70;;;;;;5054871;28;20041;-50
2022/06/11 01:14:32;;;;;;;0.30;0.10;;;27.20;47.60;;;;;;5049316;28;20044;-51
2022/06/11 01:17:10;;;;;;;0.20;0.10;;;27.10;47.60;;;;;;5053637;28;20037;-50
2022/06/11 01:20:03;;;;;;;0.50;0.10;;;27.10;47.70;;;;;;5067495;28;20057;-49
2022/06/11 01:22:52;;;;;;;0.20;0.20;;;27.10;47.70;;;;;;5057008;28;20045;-51
2022/06/11 01:25:30;;;;;;;0.20;0.20;;;27.10;47.70;;;;;;5057324;28;20063;-50
2022/06/11 01:28:19;;;;;;;0.10;0.10;;;27.10;47.70;;;;;;5059786;28;20048;-47
2022/06/11 01:30:54;;;;;;;0.10;0.10;;;27.10;47.70;;;;;;5058315;28;20063;-50
2022/06/11 01:33:26;;;;;;;0.45;0.10;;;27.10;47.70;;;;;;5063913;28;20037;-51
2022/06/11 01:36:01;;;;;;;0.85;0.20;;;27.10;47.70;;;;;;5052783;28;20119;-51
2022/06/11 01:38:33;;;;;;;0.30;0.10;;;27.10;47.70;;;;;;5049260;28;20098;-51
2022/06/11 01:41:25;;;;;;;0.57;0.20;;;27.10;47.80;;;;;;5049589;28;20349;-51
2022/06/11 01:43:56;;;;;;;0.20;0.10;;;27.00;47.70;;;;;;5055050;28;20119;-47
2022/06/11 01:46:27;;;;;;;0.40;0.30;;;27.00;47.70;;;;;;5059300;28;20260;-52
2022/06/11 01:48:57;;;;;;;0.20;0.13;;;27.00;47.80;;;;;;5052958;28;20047;-51
2022/06/11 01:51:34;;;;;;;2.33;0.30;;;27.00;47.80;;;;;;5056025;28;20037;-48
2022/06/11 01:54:18;;;;;;;0.20;0.20;;;27.00;47.80;;;;;;5055457;28;20078;-48
2022/06/11 01:57:03;;;;;;;0.57;0.22;;;27.00;47.80;;;;;;5052999;28;20045;-49
2022/06/11 02:00:05;;;;;;;1.38;0.10;;;27.00;48.40;;;;;;5048557;28;20037;-48
2022/06/11 02:02:54;;;;;;;0.30;0.15;;;27.00;47.80;;;;;;5049741;28;20157;-47
2022/06/11 02:05:32;;;;;;;1.15;0.20;;;27.00;47.90;;;;;;5048620;28;20037;-49
2022/06/11 02:08:04;;;;;;;0.38;0.35;;;27.00;47.90;;;;;;5051881;28;20041;-48
2022/06/11 02:10:38;;;;;;;0.47;0.30;;;27.00;47.90;;;;;;5058972;28;20045;-47
2022/06/11 02:13:09;;;;;;;0.30;0.20;;;27.00;47.90;;;;;;5052686;28;20044;-47
2022/06/11 02:15:42;;;;;;;0.55;0.20;;;27.00;47.90;;;;;;5055219;28;20586;-51
2022/06/11 02:18:15;;;;;;;0.10;0.10;;;27.00;47.90;;;;;;5052468;28;20063;-47
2022/06/11 02:20:47;;;;;;;0.20;0.10;;;27.00;47.90;;;;;;5057469;28;20077;-49
2022/06/11 02:23:18;;;;;;;0.28;0.17;;;27.00;48.00;;;;;;5053130;28;20124;-49
2022/06/11 02:25:50;;;;;;;0.73;0.40;;;27.00;48.00;;;;;;5055662;28;20168;-49
2022/06/11 02:28:22;;;;;;;0.17;0.10;;;27.00;48.00;;;;;;5056905;28;20048;-51
2022/06/11 02:30:51;;;;;;;0.90;0.20;;;27.00;48.00;;;;;;5052310;28;20080;-52
2022/06/11 02:33:21;;;;;;;0.20;0.10;;;27.00;48.00;;;;;;5056266;28;20033;-49
2022/06/11 02:35:56;;;;;;;1.30;0.10;;;27.00;48.00;;;;;;5050810;28;20423;-50
2022/06/11 02:38:25;;;;;;;1.73;0.10;;;27.00;48.00;;;;;;5060120;28;20114;-47
2022/06/11 02:40:55;;;;;;;0.10;0.10;;;26.90;48.00;;;;;;5049821;28;20045;-52
2022/06/11 02:43:22;;;;;;;1.55;0.10;;;26.90;48.00;;;;;;5052454;28;20126;-50
2022/06/11 02:45:50;;;;;;;0.65;0.10;;;26.90;48.00;;;;;;5057873;28;20036;-50
2022/06/11 02:48:18;;;;;;;0.13;0.13;;;26.90;48.00;;;;;;5052260;28;20573;-49
2022/06/11 02:50:47;;;;;;;0.20;0.20;;;26.90;48.00;;;;;;5049474;28;20052;-49
2022/06/11 02:53:15;;;;;;;1.05;0.20;;;26.90;48.00;;;;;;5053301;28;20572;-50
2022/06/11 02:55:43;;;;;;;0.10;0.10;;;26.90;48.00;;;;;;5059775;28;20040;-48
2022/06/11 02:58:11;;;;;;;0.30;0.10;;;26.90;48.00;;;;;;5051756;28;20089;-50
2022/06/11 03:00:41;;;;;;;0.10;0.10;;;26.90;48.10;;;;;;5055788;28;20412;-47
2022/06/11 03:03:09;;;;;;;0.52;0.30;;;26.90;48.00;;;;;;5052863;28;20142;-51
2022/06/11 03:05:39;;;;;;;0.10;0.10;;;26.90;48.00;;;;;;5062330;28;20049;-50
2022/06/11 03:08:08;;;;;;;0.55;0.43;;;26.90;48.10;;;;;;5052576;28;20148;-56
2022/06/11 03:10:35;;;;;;;0.15;0.10;;;26.90;48.10;;;;;;5057344;28;20045;-54
2022/06/11 03:13:02;;;;;;;0.20;0.10;;;26.90;48.10;;;;;;5051933;28;20045;-54
2022/06/11 03:15:30;;;;;;;0.20;0.10;;;26.90;48.10;;;;;;5052806;28;20041;-51
2022/06/11 03:17:58;;;;;;;0.10;0.10;;;26.90;48.10;;;;;;5050798;28;20120;-54
2022/06/11 03:20:30;;;;;;;0.10;0.10;;;26.90;48.10;;;;;;5051119;28;20433;-52
2022/06/11 03:22:58;;;;;;;0.65;0.10;;;26.90;48.10;;;;;;5048674;28;20080;-52
2022/06/11 03:25:25;;;;;;;0.10;0.10;;;26.80;48.10;;;;;;5050902;28;20045;-52
2022/06/11 03:27:53;;;;;;;0.13;0.08;;;26.90;48.10;;;;;;5055536;28;20101;-51
2022/06/11 03:30:20;;;;;;;0.10;0.00;;;26.80;48.10;;;;;;5051409;28;20048;-51
2022/06/11 03:32:48;;;;;;;0.20;0.10;;;26.90;48.20;;;;;;5049431;28;20071;-50
2022/06/11 03:35:16;;;;;;;0.20;0.10;;;26.80;48.10;;;;;;5051499;28;20049;-50
2022/06/11 03:37:43;;;;;;;0.10;0.10;;;26.90;48.20;;;;;;5057253;28;20052;-51
2022/06/11 03:40:12;;;;;;;0.20;0.10;;;26.80;48.20;;;;;;5051999;28;20041;-49
2022/06/11 03:42:40;;;;;;;0.00;0.00;;;26.80;48.20;;;;;;5054340;28;20127;-51
2022/06/11 03:45:08;;;;;;;0.10;0.10;;;26.80;48.20;;;;;;5052534;28;20063;-53
2022/06/11 03:47:38;;;;;;;0.10;0.10;;;26.80;48.20;;;;;;5051643;28;20124;-52
2022/06/11 03:50:07;;;;;;;0.80;0.10;;;26.80;48.20;;;;;;5049471;28;20045;-54
2022/06/11 03:52:34;;;;;;;0.10;0.10;;;26.80;48.20;;;;;;5057620;28;20433;-52
2022/06/11 03:55:02;;;;;;;0.32;0.10;;;26.80;48.20;;;;;;5058594;28;20044;-53
2022/06/11 03:57:31;;;;;;;0.10;0.10;;;26.80;48.20;;;;;;5050861;28;20129;-49
2022/06/11 03:59:58;;;;;;;0.10;0.10;;;26.80;48.20;;;;;;5050856;28;20496;-52
2022/06/11 04:02:25;;;;;;;0.45;0.10;;;26.80;48.20;;;;;;5046293;28;20402;-50
2022/06/11 04:04:52;;;;;;;0.10;0.10;;;26.80;48.80;;;;;;5058665;28;20501;-51
2022/06/11 04:07:19;;;;;;;0.10;0.03;;;26.80;48.30;;;;;;5050440;28;20131;-52
2022/06/11 04:09:47;;;;;;;0.20;0.08;;;26.80;48.20;;;;;;5054699;28;20497;-52
2022/06/11 04:12:16;;;;;;;0.10;0.10;;;26.80;48.30;;;;;;5052776;28;20150;-50
2022/06/11 04:14:46;;;;;;;0.52;0.10;;;26.80;48.30;;;;;;5061678;28;20179;-52
2022/06/11 04:17:28;;;;;;;0.50;0.10;;;26.80;48.30;;;;;;5047899;28;20045;-50
2022/06/11 04:19:56;;;;;;;0.10;0.03;;;26.80;48.30;;;;;;5058539;28;20082;-50
2022/06/11 04:22:23;;;;;;;0.57;0.10;;;26.80;48.30;;;;;;5051453;28;20139;-51
2022/06/11 04:24:51;;;;;;;0.20;0.20;;;26.80;48.30;;;;;;5053066;28;20128;-51
2022/06/11 04:27:20;;;;;;;0.15;0.10;;;26.80;48.90;;;;;;5052972;28;20051;-51
2022/06/11 04:29:51;;;;;;;0.08;0.08;;;26.80;48.30;;;;;;5050841;28;20168;-49
2022/06/11 04:32:18;;;;;;;0.10;0.10;;;26.80;48.30;;;;;;5050311;28;20056;-51
2022/06/11 04:34:48;;;;;;;0.10;0.10;;;26.80;48.30;;;;;;5058802;28;20037;-49
2022/06/11 04:37:18;;;;;;;0.08;0.08;;;26.80;48.30;;;;;;5060811;28;20503;-47
2022/06/11 04:39:49;;;;;;;0.20;0.00;;;26.80;48.30;;;;;;5058937;28;20037;-49
2022/06/11 04:42:17;;;;;;;0.10;0.10;;;26.80;48.30;;;;;;5056004;28;20171;-51
2022/06/11 04:44:45;;;;;;;0.30;0.00;;;26.80;48.30;;;;;;5051101;28;20132;-51
2022/06/11 04:47:18;;;;;;;0.00;0.00;;;26.80;48.30;;;;;;5054314;28;20056;-53
2022/06/11 04:49:45;;;;;;;0.10;0.10;;;26.80;48.30;;;;;;5055719;28;20053;-51
2022/06/11 04:52:12;;;;;;;0.25;0.10;;;26.80;48.30;;;;;;5057235;28;20056;-54
2022/06/11 04:54:39;;;;;;;0.03;0.00;;;26.80;48.30;;;;;;5065911;28;20644;-47
2022/06/11 04:57:07;;;;;;;0.10;0.10;;;26.80;48.30;;;;;;5054159;28;20048;-50
2022/06/11 04:59:34;;;;;;;0.08;0.08;;;26.80;48.30;;;;;;5050639;28;20036;-54
2022/06/11 05:02:03;;;;;;;0.00;0.00;;;26.80;48.30;;;;;;5056949;28;20498;-53
2022/06/11 05:04:31;;;;;;;0.10;0.10;;;26.80;48.30;;;;;;5056884;28;20045;-52
2022/06/11 05:06:58;;;;;;;0.10;0.00;;;26.80;48.30;;;;;;5054586;28;20416;-50
2022/06/11 05:09:28;;;;;;;0.10;0.08;;;26.90;48.30;;;;;;5052924;28;20051;-49
2022/06/11 05:11:56;;;;;;;0.10;0.10;;;26.90;48.30;;;;;;5064879;28;20040;-51
2022/06/11 05:14:26;;;;;;;0.47;0.47;;;26.90;48.30;;;;;;5055602;28;20047;-50
2022/06/11 05:16:56;;;;;;;0.10;0.05;;;26.90;48.30;;;;;;5055577;28;20045;-52
2022/06/11 05:19:23;;;;;;;2.42;0.10;;;26.90;48.30;;;;;;5062584;28;20069;-53
2022/06/11 05:21:53;;;;;;;0.10;0.08;;;26.90;48.20;;;;;;5060007;28;20047;-52
2022/06/11 05:24:20;;;;;;;0.10;0.10;;;26.90;48.20;;;;;;5053713;28;20123;-51
2022/06/11 05:26:50;;;;;;;0.00;0.00;;;26.90;48.20;;;;;;5051625;28;20037;-54
2022/06/11 05:29:24;;;;;;;0.28;0.15;;;26.90;48.20;;;;;;5053758;28;20143;-53
2022/06/11 05:31:51;;;;;;;0.75;0.00;;;26.90;48.20;;;;;;5055538;28;20055;-53
2022/06/11 05:34:19;;;;;;;0.15;0.15;;;26.90;48.20;;;;;;5054832;28;20043;-51
2022/06/11 05:36:46;;;;;;;0.32;0.32;;;26.90;48.20;;;;;;5056045;28;20057;-53
2022/06/11 05:39:14;;;;;;;1.05;0.10;;;26.90;48.20;;;;;;5053058;28;20080;-53
2022/06/11 05:41:41;;;;;;;0.03;0.03;;;26.90;48.20;;;;;;5050504;28;20049;-51
2022/06/11 05:44:08;;;;;;;0.10;0.00;;;26.90;48.10;;;;;;5053104;28;20532;-47
2022/06/11 05:46:36;;;;;;;0.10;0.10;;;26.90;48.10;;;;;;5059551;28;20580;-50
2022/06/11 05:49:08;;;;;;;0.00;0.00;;;26.90;48.10;;;;;;5053673;28;20037;-49
2022/06/11 05:51:41;;;;;;;0.10;0.10;;;26.90;48.10;;;;;;5060102;28;20489;-51
2022/06/11 05:54:14;;;;;;;0.65;0.10;;;27.00;48.20;;;;;;5052773;28;20043;-53
2022/06/11 05:56:43;;;;;;;0.63;0.10;;;27.00;48.20;;;;;;5053679;28;20081;-53
2022/06/11 05:59:14;;;;;;;0.10;0.10;;;27.00;48.10;;;;;;5049387;28;20417;-51
2022/06/11 06:01:43;;;;;;;0.65;0.10;;;27.00;48.10;;;;;;5053813;28;20041;-54
2022/06/11 06:04:10;;;;;;;0.30;0.00;;;27.00;48.10;;;;;;5057360;28;20041;-53
2022/06/11 06:06:37;;;;;;;0.10;0.10;;;27.00;48.10;;;;;;5052661;28;20648;-54
2022/06/11 06:09:05;;;;;;;0.10;0.10;;;27.00;48.10;;;;;;5052829;28;20039;-54
2022/06/11 06:11:32;;;;;;;0.25;0.10;;;27.00;48.00;;;;;;5051240;28;27942;-49
2022/06/11 06:14:01;;;;;;;0.90;0.10;;;27.10;48.10;;;;;;5064620;28;20412;-51
2022/06/11 06:16:30;;;;;;;0.70;0.20;;;27.00;48.00;;;;;;5053550;28;20053;-50
2022/06/11 06:18:59;;;;;;;0.10;0.10;;;27.00;48.00;;;;;;5057442;28;20674;-52
2022/06/11 06:21:30;;;;;;;3.08;0.10;;;27.00;47.90;;;;;;5057759;28;20044;-53
2022/06/11 06:23:57;;;;;;;0.10;0.05;;;27.10;48.00;;;;;;5054094;28;20032;-51
2022/06/11 06:26:25;;;;;;;2.92;0.28;;;27.10;48.00;;;;;;5048360;28;21148;-50
2022/06/11 06:28:52;;;;;;;0.10;0.10;;;27.10;47.90;;;;;;5058253;28;20056;-51
2022/06/11 06:31:21;;;;;;;1.52;0.10;;;27.10;47.90;;;;;;5058546;28;20036;-51
2022/06/11 06:33:48;;;;;;;0.10;0.10;;;27.10;47.90;;;;;;5052473;28;20115;-54
2022/06/11 06:36:16;;;;;;;0.50;0.20;;;27.10;47.90;;;;;;5054106;28;20033;-48
2022/06/11 06:38:44;;;;;;;0.20;0.10;;;27.10;47.90;;;;;;5053896;28;20047;-53
2022/06/11 06:41:12;;;;;;;0.08;0.05;;;27.10;47.90;;;;;;5049888;28;20065;-49
2022/06/11 06:43:39;;;;;;;0.17;0.10;;;27.10;47.80;;;;;;5054918;28;20076;-52
2022/06/11 06:46:07;;;;;;;0.10;0.10;;;27.20;47.90;;;;;;5055121;28;20040;-50
2022/06/11 06:48:35;;;;;;;1.58;0.10;;;27.20;47.80;;;;;;5051998;28;20460;-52
2022/06/11 06:51:03;;;;;;;1.15;0.20;;;27.20;47.80;;;;;;5051573;28;20584;-52
2022/06/11 06:53:31;;;;;;;0.13;0.10;;;27.20;47.80;;;;;;5049798;28;20033;-49
2022/06/11 06:55:58;;;;;;;0.10;0.10;;;27.20;47.70;;;;;;5057189;28;20052;-49
2022/06/11 06:58:25;;;;;;;0.20;0.20;;;27.20;47.70;;;;;;5052640;28;20053;-51
2022/06/11 07:00:52;;;;;;;0.20;0.10;;;27.20;47.70;;;;;;5054610;28;20033;-51
2022/06/11 07:03:20;;;;;;;0.10;0.10;;;27.20;47.70;;;;;;5052922;28;20045;-53
2022/06/11 07:05:49;;;;;;;0.10;0.10;;;27.30;47.70;;;;;;5052235;28;20045;-47
2022/06/11 07:08:17;;;;;;;0.10;0.10;;;27.20;47.60;;;;;;5048365;28;20045;-47
2022/06/11 07:10:48;;;;;;;0.13;0.10;;;27.20;47.60;;;;;;5056052;28;20041;-47
2022/06/11 07:13:16;;;;;;;1.48;0.10;;;27.30;47.70;;;;;;5056307;28;20048;-50
2022/06/11 07:15:44;;;;;;;0.17;0.10;;;27.20;47.60;;;;;;5051425;28;20041;-49
2022/06/11 07:18:15;;;;;;;1.80;0.10;;;27.30;47.60;;;;;;5055658;28;20473;-54
2022/06/11 07:20:46;;;;;;;0.40;0.10;;;27.30;47.60;;;;;;5053415;28;20053;-52
2022/06/11 07:23:18;;;;;;;0.25;0.05;;;27.30;47.60;;;;;;5055489;28;20159;-49
2022/06/11 07:25:48;;;;;;;0.30;0.10;;;27.30;47.50;;;;;;5052279;28;20072;-53
2022/06/11 07:28:17;;;;;;;0.10;0.10;;;27.30;47.50;;;;;;5055557;28;20477;-47
2022/06/11 07:30:45;;;;;;;0.00;0.00;;;27.30;47.50;;;;;;5056905;28;20080;-50
2022/06/11 07:33:16;;;;;;;0.22;0.10;;;27.40;47.50;;;;;;5051184;28;20041;-54
2022/06/11 07:35:44;;;;;;;0.40;0.10;;;27.40;47.50;;;;;;5048598;28;20501;-53
2022/06/11 07:38:14;;;;;;;0.10;0.10;;;27.40;47.50;;;;;;5053195;28;20131;-53
2022/06/11 07:40:42;;;;;;;0.20;0.15;;;27.40;47.40;;;;;;5054043;28;20052;-54
2022/06/11 07:43:09;;;;;;;0.17;0.10;;;27.40;47.40;;;;;;5051055;28;20047;-48
2022/06/11 07:45:39;;;;;;;0.10;0.10;;;27.40;47.30;;;;;;5054892;28;20115;-49
2022/06/11 07:48:06;;;;;;;0.10;0.10;;;27.50;47.40;;;;;;5056870;28;20044;-50
2022/06/11 07:50:36;;;;;;;0.10;0.10;;;27.50;47.30;;;;;;5051182;28;20071;-49
2022/06/11 07:53:05;;;;;;;1.75;0.10;;;27.50;47.30;;;;;;5050300;28;20057;-54
2022/06/11 07:55:35;;;;;;;0.75;0.10;;;27.50;47.30;;;;;;5058709;28;20076;-51
2022/06/11 07:58:02;;;;;;;0.10;0.10;;;27.50;47.20;;;;;;5053293;28;20071;-54
2022/06/11 08:00:32;;;;;;;0.40;0.10;;;27.50;47.20;;;;;;5052864;28;20072;-54
2022/06/11 08:02:59;;;;;;;0.32;0.10;;;27.60;47.20;;;;;;5048949;28;20124;-53
2022/06/11 08:05:26;;;;;;;0.65;0.10;;;27.60;47.20;;;;;;5045992;28;20216;-54
2022/06/11 08:07:54;;;;;;;0.95;0.10;;;27.60;47.10;;;;;;5052308;28;20076;-48
2022/06/11 08:10:27;;;;;;;0.60;0.10;;;27.60;47.10;;;;;;5053277;28;20048;-51
2022/06/11 08:12:56;;;;;;;2.05;0.20;;;27.60;47.10;;;;;;5055681;28;20147;-49
2022/06/11 08:15:23;;;;;;;0.82;0.22;;;27.60;47.10;;;;;;5049765;28;20389;-49
2022/06/11 08:17:50;;;;;;;0.40;0.25;;;27.60;47.00;;;;;;5048990;28;20029;-49
2022/06/11 08:20:22;;;;;;;0.10;0.10;;;27.60;47.00;;;;;;5053484;28;20512;-51
2022/06/11 08:22:49;;;;;;;0.25;0.20;;;27.60;47.00;;;;;;5056356;28;20079;-50
2022/06/11 08:25:17;;;;;;;0.50;0.10;;;27.70;47.00;;;;;;5050919;28;20696;-50
2022/06/11 08:27:45;;;;;;;0.22;0.10;;;27.70;47.00;;;;;;5050497;28;20067;-52
2022/06/11 08:30:17;;;;;;;0.50;0.25;;;27.70;47.00;;;;;;5051293;28;20029;-49
2022/06/11 08:32:44;;;;;;;0.30;0.10;;;27.70;46.90;;;;;;5051656;28;20041;-49
2022/06/11 08:35:13;;;;;;;1.10;0.50;;;27.70;46.90;;;;;;5048488;28;20505;-49
2022/06/11 08:37:40;;;;;;;0.20;0.10;;;27.70;46.90;;;;;;5051339;28;20517;-49
2022/06/11 08:40:15;;;;;;;1.58;0.10;;;27.70;46.80;;;;;;5059599;28;20051;-51
2022/06/11 08:42:44;;;;;;;1.35;0.10;;;27.70;46.80;;;;;;5050442;28;20420;-49
2022/06/11 08:45:19;;;;;;;1.63;0.13;;;27.70;46.80;;;;;;5051456;28;20078;-50
2022/06/11 08:47:51;;;;;;;1.08;0.10;;;27.80;46.80;;;;;;5051667;28;20052;-54
2022/06/11 08:50:27;;;;;;;0.25;0.10;;;27.80;46.90;;;;;;5053635;28;20128;-51
2022/06/11 08:52:55;;;;;;;2.65;0.20;;;27.80;46.80;;;;;;5047823;28;20394;-50
2022/06/11 08:55:24;;;;;;;0.70;0.70;;;27.80;46.80;;;;;;5054435;28;20052;-53
2022/06/11 08:58:06;;;;;;;0.80;0.10;;;27.80;46.80;;;;;;5056744;28;20044;-50
2022/06/11 09:00:44;;;;;;;0.55;0.10;;;27.80;46.70;;;;;;5050791;28;20056;-55
2022/06/11 09:03:20;;;;;;;0.55;0.55;;;27.80;46.70;;;;;;5051788;28;20064;-55
2022/06/11 09:06:00;;;;;;;0.90;0.75;;;27.80;46.70;;;;;;5050147;28;20045;-55
2022/06/11 09:08:39;;;;;;;0.38;0.25;;;27.80;46.70;;;;;;5046562;28;20119;-52
2022/06/11 09:11:17;;;;;;;1.80;0.10;;;27.80;46.60;;;;;;5048712;28;20041;-50
2022/06/11 09:14:07;;;;;;;1.08;0.22;;;27.90;46.70;;;;;;5052683;28;20037;-51
2022/06/11 09:16:50;;;;;;;0.50;0.40;;;27.90;46.60;;;;;;5050704;28;20061;-54
2022/06/11 09:19:39;;;;;;;3.88;0.43;;;27.90;46.60;;;;;;5058204;28;20510;-52
2022/06/11 09:22:22;;;;;;;0.30;0.20;;;27.90;46.60;;;;;;5058372;28;20118;-49
2022/06/11 09:25:04;;;;;;;2.10;0.20;;;27.90;46.60;;;;;;5054044;28;20056;-52
2022/06/11 09:27:38;;;;;;;0.20;0.10;;;27.90;46.60;;;;;;5057103;28;20166;-49
2022/06/11 09:30:08;;;;;;;0.30;0.10;;;27.90;46.50;;;;;;5053413;28;20033;-51
2022/06/11 09:32:44;;;;;;;0.10;0.10;;;27.90;46.60;;;;;;5054554;28;20053;-52
2022/06/11 09:35:19;;;;;;;0.50;0.20;;;27.90;46.50;;;;;;5051199;28;20045;-52
2022/06/11 09:37:57;;;;;;;1.80;0.10;;;27.90;46.50;;;;;;5064453;28;20594;-52
2022/06/11 09:40:34;;;;;;;0.68;0.38;;;27.90;46.50;;;;;;5059202;28;20044;-54
2022/06/11 09:43:17;;;;;;;0.28;0.20;;;27.90;46.40;;;;;;5053266;28;20148;-52
2022/06/11 09:45:52;;;;;;;0.25;0.10;;;28.00;46.50;;;;;;5056801;28;20040;-52
2022/06/11 09:48:31;;;;;;;0.50;0.10;;;27.90;46.40;;;;;;5060032;28;20047;-53
2022/06/11 09:51:07;;;;;;;0.10;0.10;;;27.90;46.40;;;;;;5054172;28;20527;-49
2022/06/11 09:53:48;;;;;;;0.80;0.20;;;28.00;46.40;;;;;;5049895;28;20964;-51
2022/06/11 09:56:23;;;;;;;0.20;0.10;;;28.00;46.40;;;;;;5065796;28;20145;-53
2022/06/11 09:58:57;;;;;;;0.40;0.22;;;28.00;46.40;;;;;;5060891;28;20525;-51
2022/06/11 10:01:31;;;;;;;0.63;0.10;;;27.90;46.40;;;;;;5054291;28;20165;-52
2022/06/11 10:04:04;;;;;;;0.63;0.10;;;28.00;46.40;;;;;;5056674;28;20155;-54
2022/06/11 10:06:38;;;;;;;0.73;0.38;;;28.00;46.40;;;;;;5057201;28;20064;-50
2022/06/11 10:09:10;;;;;;;0.30;0.22;;;28.10;46.40;;;;;;5054619;28;20063;-52
2022/06/11 10:11:44;;;;;;;0.47;0.25;;;28.00;46.40;;;;;;5049596;28;20056;-52
2022/06/11 10:14:30;;;;;;;1.83;0.17;;;28.10;46.40;;;;;;5053209;28;20136;-52
2022/06/11 10:17:04;;;;;;;5.60;0.10;;;28.10;46.40;;;;;;5056954;28;20045;-53
2022/06/11 10:19:39;;;;;;;2.30;0.30;;;28.10;46.40;;;;;;5056848;28;20525;-51
2022/06/11 10:22:15;;;;;;;2.63;0.20;;;28.10;47.00;;;;;;5057101;28;20037;-49
2022/06/11 10:24:52;;;;;;;0.17;0.10;;;28.10;46.30;;;;;;5054766;28;20124;-51
2022/06/11 10:27:20;;;;;;;0.68;0.20;;;28.10;46.30;;;;;;5055160;28;20109;-52
2022/06/11 10:29:51;;;;;;;0.35;0.30;;;28.20;46.30;;;;;;5051776;28;20679;-53
2022/06/11 10:32:27;;;;;;;0.30;0.30;;;28.20;46.30;;;;;;5053390;28;20129;-49
2022/06/11 10:34:59;;;;;;;;;;;28.20;46.30;;;;;;5055159;28;20044;-54
2022/06/11 10:37:36;;;;;;;0.25;0.20;;;28.10;46.20;;;;;;5056731;28;19920;-52
2022/06/11 10:40:13;;;;;;;0.93;0.20;;;28.20;46.40;;;;;;5057645;28;20716;-55
2022/06/11 10:42:46;;;;;;;0.10;0.10;;;28.20;46.30;;;;;;5052576;28;20524;-52
2022/06/11 10:45:14;;;;;;;0.30;0.20;;;28.20;46.30;;;;;;5053578;28;20521;-50
2022/06/11 10:47:46;;;;;;;3.03;0.40;;;28.20;46.20;;;;;;5050642;28;20041;-54
2022/06/11 10:50:22;;;;;;;0.17;0.10;;;28.20;46.20;;;;;;5054543;28;20080;-55
2022/06/11 10:52:58;;;;;;;1.30;0.30;;;28.20;46.20;;;;;;5054385;28;20045;-46
2022/06/11 10:55:30;;;;;;;;;;;28.30;46.20;;;;;;5055433;28;20177;-52
2022/06/11 10:58:04;;;;;;;0.30;0.17;;;28.20;46.10;;;;;;5057371;28;19932;-52
2022/06/11 11:00:40;;;;;;;2.58;0.20;;;28.20;46.20;;;;;;5052223;28;20041;-51
2022/06/11 11:03:15;;;;;;;0.20;0.10;;;28.20;46.20;;;;;;5052317;28;20124;-52
2022/06/11 11:05:51;;;;;;;0.40;0.10;;;28.30;46.20;;;;;;5051374;28;20626;-50
2022/06/11 11:08:18;;;;;;;0.73;0.20;;;28.30;46.10;;;;;;5055025;28;20136;-52
2022/06/11 11:10:47;;;;;;;0.32;0.10;;;28.30;46.10;;;;;;5053986;28;20502;-48
2022/06/11 11:13:21;;;;;;;0.22;0.13;;;28.30;46.70;;;;;;5055945;28;20123;-51
2022/06/11 11:15:57;;;;;;;0.60;0.10;;;28.40;46.10;;;;;;5058302;28;20076;-50
2022/06/11 11:18:27;;;;;;;0.17;0.10;;;28.40;46.10;;;;;;5051939;28;20139;-51
2022/06/11 11:20:57;;;;;;;0.30;0.30;;;28.40;46.00;;;;;;5052523;28;20063;-51
2022/06/11 11:23:30;;;;;;;1.45;0.30;;;28.40;46.00;;;;;;5052578;28;20128;-51
2022/06/11 11:26:01;;;;;;;0.77;0.40;;;28.40;46.00;;;;;;5056014;28;20052;-50
2022/06/11 11:28:32;;;;;;;0.50;0.28;;;28.40;46.00;;;;;;5054691;28;20461;-50
2022/06/11 11:31:07;;;;;;;0.85;0.32;;;28.50;46.00;;;;;;5058585;28;20523;-51
2022/06/11 11:33:36;;;;;;;0.43;0.43;;;28.50;46.00;;;;;;5054206;28;20072;-51
2022/06/11 11:36:20;;;;;;;0.77;0.65;;;28.50;46.00;;;;;;5052966;28;20119;-49
2022/06/11 11:39:15;;;;;;;2.95;0.40;;;28.60;46.00;;;;;;5049670;28;20053;-52
2022/06/11 11:41:51;;;;;;;4.82;0.55;;;28.60;46.00;;;;;;5048204;28;20048;-48
2022/06/11 11:44:19;;;;;;;2.60;0.52;;;28.50;45.90;;;;;;5048401;28;20098;-50
2022/06/11 11:46:51;;;;;;;2.53;0.80;;;28.50;45.90;;;;;;5055366;28;20450;-52
2022/06/11 11:49:23;;;;;;;1.23;0.68;;;28.60;45.90;;;;;;5056398;28;20091;-51
2022/06/11 11:51:52;;;;;;;1.48;1.08;;;28.60;45.80;;;;;;5051478;28;20060;-51
2022/06/11 11:54:23;;;;;;;1.25;1.08;;;28.60;45.80;;;;;;5053208;28;20131;-50
2022/06/11 11:56:53;;;;;;;3.25;0.70;;;28.70;45.90;;;;;;5061804;28;20052;-50
2022/06/11 11:59:23;;;;;;;0.63;0.63;;;28.60;45.70;;;;;;5052527;28;20041;-52
2022/06/11 12:01:55;;;;;;;4.05;1.25;;;28.70;45.80;;;;;;5053143;28;20161;-51
2022/06/11 12:04:28;;;;;;;1.58;1.42;;;28.70;45.70;;;;;;5054457;28;20059;-51
2022/06/11 12:06:59;;;;;;;0.95;0.70;;;28.70;45.80;;;;;;5055986;28;20476;-52
2022/06/11 12:09:30;;;;;;;1.95;1.73;;;28.80;45.70;;;;;;5051142;28;20065;-49
2022/06/11 12:12:05;;;;;;;2.72;1.40;;;28.80;45.70;;;;;;5052329;28;20032;-53
2022/06/11 12:14:34;;;;;;;;;;;28.80;45.60;;;;;;5046996;28;20072;-53
2022/06/11 12:17:19;;;;;;;2.35;1.73;;;28.80;45.60;;;;;;5056387;28;19928;-49
2022/06/11 12:19:52;;;;;;;1.40;1.30;;;28.80;45.70;;;;;;5053604;28;20048;-50
2022/06/11 12:22:29;;;;;;;4.57;2.65;;;28.90;45.60;;;;;;5053787;28;20130;-51
2022/06/11 12:24:57;;;;;;;3.63;1.33;;;28.90;45.60;;;;;;5057078;28;20047;-50
2022/06/11 12:27:32;;;;;;;3.03;1.77;;;28.90;45.60;;;;;;5050951;28;20120;-52
2022/06/11 12:30:02;;;;;;;3.88;1.48;;;29.00;45.50;;;;;;5049460;28;20044;-50
2022/06/11 12:32:31;;;;;;;6.50;1.75;;;29.00;45.40;;;;;;5045902;28;20116;-51
2022/06/11 12:35:00;;;;;;;2.13;1.70;;;29.00;45.30;;;;;;5054515;28;20052;-53
2022/06/11 12:37:39;;;;;;;3.17;1.50;;;29.00;45.30;;;;;;5051366;28;20044;-51
2022/06/11 12:40:22;;;;;;;3.47;1.50;;;29.10;45.30;;;;;;5054468;28;20128;-49
2022/06/11 12:42:58;;;;;;;3.20;1.35;;;29.20;45.20;;;;;;5050562;28;20122;-46
2022/06/11 12:45:35;;;;;;;1.75;1.10;;;29.20;45.20;;;;;;5052332;28;20044;-47
2022/06/11 12:48:17;;;;;;;2.63;2.03;;;29.20;45.10;;;;;;5049626;28;20033;-52
2022/06/11 12:50:51;;;;;;;2.25;1.73;;;29.30;45.10;;;;;;5050458;28;20041;-51
2022/06/11 12:53:38;;;;;;;1.52;0.98;;;29.20;44.90;;;;;;5049902;28;20131;-51
2022/06/11 12:56:18;;;;;;;1.58;1.27;;;29.30;44.90;;;;;;5053594;28;20048;-50
2022/06/11 12:59:10;;;;;;;2.65;1.15;;;29.30;44.80;;;;;;5056157;28;20049;-51
2022/06/11 13:01:46;;;;;;;1.15;1.15;;;29.30;44.70;;;;;;5054835;28;20158;-51
2022/06/11 13:04:38;;;;;;;2.20;1.10;;;29.30;44.80;;;;;;5057604;28;20604;-50
2022/06/11 13:07:12;;;;;;;2.95;0.73;;;29.30;44.70;;;;;;5058148;28;20132;-52
2022/06/11 13:10:07;;;;;;;2.67;1.58;;;29.30;44.70;;;;;;5053700;28;20056;-50
2022/06/11 13:12:51;;;;;;;3.13;1.23;;;29.40;44.70;;;;;;5052980;28;20535;-51